Time;durP1;ratioP1;P1;durP2;ratioP2;P2;SDS_P1;SDS_P2;PMS_P1;PMS_P2;Temp;Humidity;BMP_temperature;BMP_pressure;BME280_temperature;BME280_humidity;BME280_pressure;Samples;Min_cycle;Max_cycle;Signal;HPM_P1;HPM_P2
2022/06/12 00:00:46;;;;;;;9.20;6.35;;;;;;;16.75;86.91;95957.88;5095545;28;20016;-61
2022/06/12 00:03:15;;;;;;;12.23;6.35;;;;;;;16.82;86.85;95958.28;5095587;28;20022;-61
2022/06/12 00:05:46;;;;;;;6.88;6.18;;;;;;;16.79;87.05;95959.31;5095444;28;20031;-62
2022/06/12 00:08:12;;;;;;;8.30;6.47;;;;;;;16.79;87.43;95968.09;5095492;28;20032;-62
2022/06/12 00:10:40;;;;;;;7.13;6.53;;;;;;;16.82;87.45;95969.66;5095298;28;20056;-61
2022/06/12 00:13:08;;;;;;;7.40;6.70;;;;;;;16.84;88.05;95974.84;5095219;28;20036;-62
2022/06/12 00:15:34;;;;;;;7.65;6.90;;;;;;;16.82;87.96;95971.47;5095293;28;20020;-61
2022/06/12 00:18:00;;;;;;;7.93;7.13;;;;;;;16.83;88.14;95971.38;5094953;28;20452;-62
2022/06/12 00:20:27;;;;;;;9.98;6.85;;;;;;;16.88;87.88;95974.50;5095127;28;20020;-61
2022/06/12 00:22:55;;;;;;;11.57;7.55;;;;;;;16.92;87.86;95969.84;5095216;28;20055;-61
2022/06/12 00:25:25;;;;;;;10.40;7.18;;;;;;;16.93;88.23;95967.09;5095082;28;20020;-62
2022/06/12 00:27:51;;;;;;;8.07;7.25;;;;;;;16.99;88.17;95968.44;5095079;28;20432;-62
2022/06/12 00:30:20;;;;;;;10.07;7.28;;;;;;;17.01;87.91;95963.06;5094925;28;20020;-62
2022/06/12 00:32:49;;;;;;;8.75;7.90;;;;;;;17.03;87.88;95961.97;5094680;28;20028;-62
2022/06/12 00:35:17;;;;;;;9.55;7.15;;;;;;;17.02;88.06;95967.38;5094861;28;20103;-62
2022/06/12 00:37:43;;;;;;;7.22;6.50;;;;;;;17.04;87.98;95963.66;5094842;28;20028;-62
2022/06/12 00:40:10;;;;;;;12.23;7.50;;;;;;;17.06;87.87;95966.19;5094690;28;20118;-61
2022/06/12 00:42:42;;;;;;;9.23;6.90;;;;;;;17.03;87.62;95963.78;5094592;28;20031;-61
2022/06/12 00:45:26;;;;;;;10.05;7.13;;;;;;;17.05;87.86;95953.94;5094817;28;20439;-61
2022/06/12 00:47:55;;;;;;;9.98;7.25;;;;;;;17.02;87.67;95955.03;5094738;28;20485;-61
2022/06/12 00:50:21;;;;;;;7.07;6.47;;;;;;;17.03;87.83;95959.34;5094618;28;20089;-61
2022/06/12 00:52:50;;;;;;;7.07;6.38;;;;;;;17.04;87.31;95968.13;5094472;28;20024;-62
2022/06/12 00:55:39;;;;;;;9.25;7.10;;;;;;;17.00;87.33;95956.06;5094539;28;20081;-61
2022/06/12 00:58:09;;;;;;;6.63;5.97;;;;;;;17.01;87.08;95957.78;5094602;28;20024;-61
2022/06/12 01:00:36;;;;;;;8.70;6.88;;;;;;;16.99;87.25;95964.94;5094502;28;20112;-61
2022/06/12 01:03:02;;;;;;;7.15;6.40;;;;;;;17.02;87.36;95947.09;5093269;28;20029;-61
2022/06/12 01:08:15;;;;;;;10.05;6.63;;;;;;;17.01;87.04;95941.91;5094717;28;20130;-61
2022/06/12 01:10:44;;;;;;;7.75;6.47;;;;;;;16.97;87.10;95949.22;5094232;28;20106;-61
2022/06/12 01:13:23;;;;;;;8.52;5.90;;;;;;;16.97;87.14;95945.72;5094160;28;20020;-61
2022/06/12 01:15:54;;;;;;;6.50;5.90;;;;;;;16.96;87.17;95944.03;5093943;28;20032;-61
2022/06/12 01:18:24;;;;;;;7.10;6.50;;;;;;;16.96;87.30;95944.03;5094097;28;20067;-61
2022/06/12 01:21:11;;;;;;;7.50;6.55;;;;;;;16.99;87.43;95946.47;5094091;28;20104;-61
2022/06/12 01:24:04;;;;;;;9.45;6.07;;;;;;;16.98;86.76;95948.25;5093919;28;20027;-61
2022/06/12 01:27:00;;;;;;;6.97;6.28;;;;;;;16.95;87.33;95937.94;5093947;28;20028;-61
2022/06/12 01:29:30;;;;;;;9.07;6.15;;;;;;;16.91;87.20;95942.59;5093859;28;20028;-62
2022/06/12 01:32:08;;;;;;;8.57;6.75;;;;;;;16.91;87.31;95939.09;5093759;28;20489;-62
2022/06/12 01:34:33;;;;;;;8.77;6.15;;;;;;;16.90;87.38;95935.63;5093806;28;20063;-62
2022/06/12 01:37:26;;;;;;;10.48;6.60;;;;;;;16.90;87.52;95935.63;5093705;28;20029;-62
2022/06/12 01:40:28;;;;;;;8.43;6.57;;;;;;;16.90;87.43;95940.91;5093824;28;20028;-62
2022/06/12 01:43:03;;;;;;;8.60;5.78;;;;;;;16.89;87.25;95930.47;5093669;28;20374;-62
2022/06/12 01:45:43;;;;;;;8.15;5.93;;;;;;;16.86;87.15;95928.03;5093263;28;20105;-62
2022/06/12 01:48:34;;;;;;;9.15;6.53;;;;;;;16.86;87.36;95925.41;5093595;28;20023;-62
2022/06/12 01:51:14;;;;;;;;;;;;;;;16.83;87.48;95929.13;5094005;28;20032;-62
2022/06/12 01:54:22;;;;;;;6.53;5.93;;;;;;;16.81;87.46;95931.00;5093475;28;19912;-62
2022/06/12 01:57:04;;;;;;;9.77;6.40;;;;;;;16.77;87.56;95925.09;5093467;28;20036;-61
2022/06/12 01:59:46;;;;;;;14.15;6.85;;;;;;;16.74;87.67;95933.25;5093485;28;20020;-62
2022/06/12 02:02:25;;;;;;;6.20;5.60;;;;;;;16.68;87.47;95925.78;5093488;28;20024;-61
2022/06/12 02:05:15;;;;;;;6.63;6.00;;;;;;;16.67;87.89;95930.22;5093378;28;20066;-61
2022/06/12 02:08:00;;;;;;;5.05;4.65;;;;;;;16.66;87.76;95935.63;5093458;28;20043;-62
2022/06/12 02:10:54;;;;;;;6.13;5.03;;;;;;;16.67;88.23;95942.56;5093381;28;20040;-61
2022/06/12 02:13:33;;;;;;;4.90;4.40;;;;;;;16.62;88.26;95931.50;5089054;28;20425;-62
2022/06/12 02:16:06;;;;;;;5.22;4.32;;;;;;;16.63;88.32;95927.91;5093162;28;20378;-62
2022/06/12 02:18:39;;;;;;;5.38;4.68;;;;;;;16.68;88.30;95926.63;5093043;28;20489;-62
2022/06/12 02:21:14;;;;;;;5.13;3.60;;;;;;;16.65;88.17;95933.94;5093113;28;20016;-62
2022/06/12 02:23:50;;;;;;;5.35;4.32;;;;;;;16.71;88.14;95936.13;5093077;28;20549;-62
2022/06/12 02:26:22;;;;;;;5.20;3.58;;;;;;;16.68;87.88;95931.06;5093296;28;20020;-62
2022/06/12 02:28:53;;;;;;;5.50;3.53;;;;;;;16.68;88.16;95941.63;5093106;28;20032;-62
2022/06/12 02:31:25;;;;;;;3.65;3.35;;;;;;;16.71;88.42;95951.13;5093019;28;20111;-62
2022/06/12 02:33:57;;;;;;;4.90;3.20;;;;;;;16.65;88.39;95940.03;5093111;28;20114;-61
2022/06/12 02:36:27;;;;;;;6.55;3.15;;;;;;;16.64;88.80;95951.56;5093097;28;20020;-62
2022/06/12 02:39:18;;;;;;;9.02;2.92;;;;;;;16.64;88.32;95954.19;5093030;28;20028;-61
2022/06/12 02:41:52;;;;;;;3.40;3.10;;;;;;;16.55;88.92;95960.13;5093011;28;20098;-61
2022/06/12 02:44:27;;;;;;;4.03;3.72;;;;;;;16.45;89.31;95953.81;5092982;28;20032;-61
2022/06/12 02:47:16;;;;;;;5.43;4.10;;;;;;;16.50;89.75;95968.38;5092878;28;20028;-61
2022/06/12 02:49:44;;;;;;;4.82;3.58;;;;;;;16.39;89.63;95965.66;5092943;28;20028;-61
2022/06/12 02:52:23;;;;;;;5.18;3.95;;;;;;;16.40;90.37;95965.56;5092778;28;20055;-62
2022/06/12 02:55:07;;;;;;;4.55;4.13;;;;;;;16.48;90.32;95972.09;5092794;28;20030;-62
2022/06/12 02:57:40;;;;;;;5.80;4.15;;;;;;;16.51;90.33;95970.09;5096562;28;20031;-62
2022/06/12 03:00:33;;;;;;;4.60;4.20;;;;;;;16.57;90.02;95963.53;5096778;28;20369;-61
2022/06/12 03:03:04;;;;;;;5.05;4.03;;;;;;;16.65;90.12;95970.91;5096634;28;20032;-62
2022/06/12 03:05:35;;;;;;;6.07;4.43;;;;;;;16.68;89.89;95962.75;5096684;28;20592;-62
2022/06/12 03:08:14;;;;;;;5.03;4.55;;;;;;;16.74;89.64;95969.38;5096757;28;20475;-62
2022/06/12 03:10:47;;;;;;;4.95;4.20;;;;;;;16.79;89.69;95957.53;5096573;28;20020;-62
2022/06/12 03:13:15;;;;;;;6.70;4.22;;;;;;;16.82;89.23;95959.09;5096521;28;20397;-62
2022/06/12 03:15:53;;;;;;;39.70;6.22;;;;;;;16.83;89.21;95957.31;5096176;28;20023;-62
2022/06/12 03:18:38;;;;;;;5.57;4.07;;;;;;;16.82;88.61;95967.03;5096424;28;20028;-61
2022/06/12 03:21:38;;;;;;;4.00;3.70;;;;;;;16.79;88.79;95962.81;5096431;28;20170;-62
2022/06/12 03:24:10;;;;;;;4.53;3.88;;;;;;;16.79;88.77;95964.59;5096381;28;20035;-61
2022/06/12 03:26:49;;;;;;;4.10;3.70;;;;;;;16.80;88.87;95966.31;5096344;28;20086;-61
2022/06/12 03:29:56;;;;;;;10.20;3.70;;;;;;;16.79;88.90;95977.81;5096247;28;20050;-61
2022/06/12 03:32:25;;;;;;;5.10;3.28;;;;;;;16.71;89.06;95983.66;5095524;28;20482;-62
2022/06/12 03:35:00;;;;;;;4.78;3.05;;;;;;;16.63;89.44;95976.28;5096042;28;20024;-62
2022/06/12 03:37:59;;;;;;;3.40;3.10;;;;;;;16.72;89.32;95971.28;5096120;28;20024;-62
2022/06/12 03:40:34;;;;;;;5.07;3.47;;;;;;;16.74;89.28;95983.41;5095860;28;20497;-62
2022/06/12 03:43:09;;;;;;;2.90;2.70;;;;;;;16.80;89.07;95984.78;5095882;28;20032;-62
2022/06/12 03:45:50;;;;;;;3.47;2.90;;;;;;;16.85;89.02;95985.28;5096015;28;20040;-62
2022/06/12 03:48:15;;;;;;;;;;;;;;;16.91;89.07;95987.50;5096348;28;20024;-62
2022/06/12 03:50:47;;;;;;;7.32;2.88;;;;;;;16.91;88.97;95979.56;5095846;28;19935;-62
2022/06/12 03:53:12;;;;;;;4.32;3.00;;;;;;;16.95;89.14;95977.56;5095646;28;20062;-62
2022/06/12 03:59:20;;;;;;;4.05;3.63;;;;;;;17.01;89.25;95970.97;5096029;28;20390;-62
2022/06/12 04:01:47;;;;;;;4.35;3.42;;;;;;;17.04;89.36;95968.13;5095582;28;20067;-61
2022/06/12 04:04:17;;;;;;;3.83;2.80;;;;;;;17.05;89.16;95960.09;5095505;28;20016;-61
2022/06/12 04:06:44;;;;;;;3.43;2.90;;;;;;;17.05;89.08;95969.78;5094998;28;20031;-61
2022/06/12 04:09:23;;;;;;;3.65;2.67;;;;;;;17.09;88.95;95967.78;5095497;28;20020;-61
2022/06/12 04:11:57;;;;;;;3.03;2.67;;;;;;;17.12;88.52;95972.84;5095314;28;20107;-61
2022/06/12 04:14:29;;;;;;;3.03;2.83;;;;;;;17.14;88.23;95971.81;5095284;28;20111;-61
2022/06/12 04:16:58;;;;;;;2.95;2.70;;;;;;;17.18;88.48;95967.13;5095099;28;20044;-62
2022/06/12 04:19:26;;;;;;;4.47;2.42;;;;;;;17.21;88.45;95972.19;5095232;28;20363;-61
2022/06/12 04:22:05;;;;;;;2.97;2.30;;;;;;;17.21;88.12;95968.69;5095237;28;20102;-61
2022/06/12 04:24:47;;;;;;;3.15;2.30;;;;;;;17.17;88.03;95976.00;5095096;28;20086;-61
2022/06/12 04:27:24;;;;;;;4.28;2.65;;;;;;;17.24;88.01;95969.31;5095128;28;20045;-62
2022/06/12 04:30:06;;;;;;;2.28;2.08;;;;;;;17.30;88.14;95976.78;5095036;28;20028;-61
2022/06/12 04:32:32;;;;;;;5.10;2.25;;;;;;;17.32;88.30;95979.31;5094862;28;20452;-62
2022/06/12 04:34:58;;;;;;;2.72;1.98;;;;;;;17.32;88.69;95989.88;5094904;28;20104;-62
2022/06/12 04:37:28;;;;;;;4.40;1.85;;;;;;;17.27;88.72;95989.38;5094846;28;20039;-62
2022/06/12 04:39:55;;;;;;;2.00;1.90;;;;;;;17.29;88.88;95990.97;5094974;28;20024;-62
2022/06/12 04:42:23;;;;;;;1.73;1.63;;;;;;;17.31;88.53;95982.91;5094665;28;20430;-62
2022/06/12 04:44:50;;;;;;;2.65;1.70;;;;;;;17.32;88.01;95989.03;5094743;28;20118;-62
2022/06/12 04:47:20;;;;;;;2.22;2.10;;;;;;;17.35;88.55;95991.44;5094630;28;20039;-62
2022/06/12 04:49:46;;;;;;;2.10;1.90;;;;;;;17.34;89.17;95990.59;5094582;28;20501;-61
2022/06/12 04:52:13;;;;;;;2.00;1.90;;;;;;;17.37;88.73;95994.84;5094541;28;20428;-61
2022/06/12 04:54:42;;;;;;;4.28;2.10;;;;;;;17.42;89.06;95997.97;5094535;28;20074;-61
2022/06/12 04:57:09;;;;;;;5.85;2.47;;;;;;;17.49;89.15;96001.84;5094451;28;20017;-62
2022/06/12 04:59:35;;;;;;;2.45;2.25;;;;;;;17.51;88.76;95997.28;5094515;28;20021;-61
2022/06/12 05:02:01;;;;;;;2.78;2.35;;;;;;;17.55;88.83;95996.09;5094384;28;20385;-62
2022/06/12 05:04:28;;;;;;;3.25;2.70;;;;;;;17.58;87.29;95987.06;5094300;28;20024;-62
2022/06/12 05:06:54;;;;;;;5.20;3.00;;;;;;;17.64;86.87;95994.56;5094360;28;20149;-61
2022/06/12 05:09:23;;;;;;;4.28;3.08;;;;;;;17.58;84.67;95999.47;5094200;28;20020;-62
2022/06/12 05:11:48;;;;;;;4.68;3.92;;;;;;;17.55;85.89;95993.44;5094029;28;20024;-62
2022/06/12 05:14:14;;;;;;;3.42;3.15;;;;;;;17.50;84.67;95997.41;5094200;28;20035;-61
2022/06/12 05:16:46;;;;;;;4.68;3.42;;;;;;;17.46;85.44;96004.69;5093882;28;20119;-61
2022/06/12 05:19:16;;;;;;;3.60;3.30;;;;;;;17.49;85.84;96016.88;5093357;28;20043;-62
2022/06/12 05:21:43;;;;;;;;;;;;;;;17.49;86.48;96016.88;5094419;28;20075;-61
2022/06/12 05:24:09;;;;;;;3.88;3.55;;;;;;;17.49;86.54;96019.50;5093935;28;19966;-61
2022/06/12 05:26:37;;;;;;;5.65;4.00;;;;;;;17.53;86.96;96010.38;5093943;28;20174;-62
2022/06/12 05:29:05;;;;;;;7.90;3.60;;;;;;;17.55;87.45;96011.94;5093989;28;20095;-61
2022/06/12 05:31:31;;;;;;;4.43;4.03;;;;;;;17.60;88.22;96022.19;5093763;28;20394;-61
2022/06/12 05:33:57;;;;;;;4.60;3.88;;;;;;;17.63;86.70;96007.88;5093688;28;20469;-61
2022/06/12 05:36:23;;;;;;;4.45;4.03;;;;;;;17.71;87.41;96021.41;5093713;28;20024;-62
2022/06/12 05:38:50;;;;;;;3.97;3.58;;;;;;;17.67;86.50;96018.13;5093725;28;20020;-62
2022/06/12 05:41:16;;;;;;;4.15;3.60;;;;;;;17.75;86.12;96011.41;5093658;28;20020;-61
2022/06/12 05:43:42;;;;;;;4.18;3.78;;;;;;;17.79;85.65;96023.47;5093650;28;20103;-61
2022/06/12 05:46:13;;;;;;;4.28;3.50;;;;;;;17.85;86.58;96019.50;5093619;28;20047;-61
2022/06/12 05:48:39;;;;;;;3.97;3.67;;;;;;;17.85;86.55;96033.56;5093540;28;20024;-61
2022/06/12 05:51:05;;;;;;;6.07;4.07;;;;;;;17.90;86.65;96026.13;5093624;28;20035;-62
2022/06/12 05:53:35;;;;;;;4.55;4.15;;;;;;;18.01;87.91;96035.91;5093516;28;20036;-61
2022/06/12 05:56:01;;;;;;;4.25;3.80;;;;;;;18.01;87.53;96046.47;5093400;28;20028;-61
2022/06/12 05:58:28;;;;;;;5.50;3.45;;;;;;;17.99;86.03;96044.91;5093426;28;20081;-62
2022/06/12 06:00:55;;;;;;;4.63;3.90;;;;;;;18.03;84.88;96047.19;5093268;28;20020;-61
2022/06/12 06:03:20;;;;;;;4.45;3.70;;;;;;;18.06;84.83;96054.03;5093396;28;20100;-61
2022/06/12 06:05:48;;;;;;;3.40;3.10;;;;;;;18.12;85.31;96055.44;5093331;28;20103;-62
2022/06/12 06:08:14;;;;;;;3.50;3.20;;;;;;;18.15;84.99;96047.25;5093268;28;20036;-61
2022/06/12 06:10:41;;;;;;;3.30;3.10;;;;;;;18.25;82.68;96058.84;5093216;28;20052;-62
2022/06/12 06:13:07;;;;;;;3.75;3.15;;;;;;;18.23;83.27;96054.59;5093085;28;20020;-61
2022/06/12 06:15:32;;;;;;;4.25;3.85;;;;;;;18.27;82.96;96056.88;5093104;28;20031;-61
2022/06/12 06:17:59;;;;;;;5.50;3.70;;;;;;;18.28;82.53;96055.94;5092833;28;20044;-61
2022/06/12 06:20:29;;;;;;;5.10;4.10;;;;;;;18.37;82.61;96054.38;5093086;28;20545;-61
2022/06/12 06:22:55;;;;;;;4.78;4.30;;;;;;;18.46;83.34;96051.97;5093094;28;20024;-62
2022/06/12 06:25:23;;;;;;;4.30;4.00;;;;;;;18.63;83.44;96053.31;5093155;28;20016;-61
2022/06/12 06:27:50;;;;;;;5.15;4.03;;;;;;;18.72;83.03;96055.22;5093088;28;20031;-62
2022/06/12 06:30:16;;;;;;;5.05;4.55;;;;;;;18.83;84.49;96051.72;5094789;28;20036;-62
2022/06/12 06:32:41;;;;;;;4.45;4.05;;;;;;;18.93;81.60;96051.81;5097273;28;20381;-62
2022/06/12 06:35:08;;;;;;;5.00;4.45;;;;;;;18.92;82.64;96050.16;5097168;28;20047;-62
2022/06/12 06:37:34;;;;;;;4.38;3.97;;;;;;;18.86;79.99;96037.38;5097082;28;20390;-62
2022/06/12 06:40:00;;;;;;;4.63;4.22;;;;;;;18.84;80.72;96052.59;5096943;28;20021;-62
2022/06/12 06:42:26;;;;;;;4.50;4.10;;;;;;;18.66;79.74;96039.84;5097148;28;20032;-62
2022/06/12 06:47:37;;;;;;;5.38;4.88;;;;;;;18.54;81.09;96046.91;5097023;28;20035;-62
2022/06/12 06:50:08;;;;;;;4.70;4.30;;;;;;;18.42;81.15;96046.91;5096885;28;20481;-62
2022/06/12 06:52:34;;;;;;;7.60;4.35;;;;;;;18.19;82.39;96041.59;5096840;28;20047;-62
2022/06/12 06:55:01;;;;;;;6.47;4.28;;;;;;;18.29;81.83;96040.88;5096787;28;20028;-62
2022/06/12 06:57:27;;;;;;;6.00;5.03;;;;;;;18.38;83.02;96049.91;5096959;28;20366;-62
2022/06/12 06:59:53;;;;;;;5.50;4.88;;;;;;;18.42;82.79;96043.41;5096751;28;20047;-62
2022/06/12 07:02:19;;;;;;;6.47;5.20;;;;;;;18.39;82.75;96036.56;5096673;28;20020;-62
2022/06/12 07:04:44;;;;;;;5.28;4.85;;;;;;;18.44;83.35;96033.56;5096666;28;20069;-62
2022/06/12 07:07:11;;;;;;;5.10;4.60;;;;;;;18.49;83.54;96044.66;5096552;28;20017;-62
2022/06/12 07:09:39;;;;;;;7.20;4.22;;;;;;;18.50;81.31;96048.97;5096562;28;20385;-62
2022/06/12 07:12:05;;;;;;;5.45;5.03;;;;;;;18.48;81.56;96042.94;5096399;28;20534;-62
2022/06/12 07:14:31;;;;;;;5.88;5.05;;;;;;;18.46;82.47;96044.03;5096350;28;20020;-62
2022/06/12 07:16:57;;;;;;;4.47;4.15;;;;;;;18.36;80.74;96054.50;5096287;28;20112;-62
2022/06/12 07:19:24;;;;;;;6.78;4.78;;;;;;;18.33;81.38;96054.75;5096305;28;20076;-62
2022/06/12 07:21:50;;;;;;;7.00;5.43;;;;;;;18.39;83.20;96060.38;5096303;28;20024;-62
2022/06/12 07:24:15;;;;;;;6.78;5.05;;;;;;;18.23;82.76;96065.19;5096285;28;20073;-62
2022/06/12 07:26:43;;;;;;;5.07;4.57;;;;;;;18.24;82.41;96069.53;5096204;28;20099;-61
2022/06/12 07:29:10;;;;;;;5.35;4.03;;;;;;;18.24;82.11;96072.19;5096115;28;20024;-63
2022/06/12 07:31:36;;;;;;;5.35;4.82;;;;;;;18.22;82.53;96074.94;5096281;28;20099;-61
2022/06/12 07:34:03;;;;;;;6.20;4.10;;;;;;;18.24;81.98;96082.78;5096213;28;20031;-62
2022/06/12 07:36:29;;;;;;;6.47;4.30;;;;;;;18.31;82.33;96083.97;5096104;28;20031;-62
2022/06/12 07:38:55;;;;;;;5.18;4.72;;;;;;;18.41;84.35;96087.59;5094766;28;20032;-62
2022/06/12 07:41:22;;;;;;;6.28;5.32;;;;;;;18.50;85.27;96090.50;5094984;28;20027;-61
2022/06/12 07:43:48;;;;;;;10.68;6.28;;;;;;;18.59;85.57;96084.47;5095965;28;20020;-62
2022/06/12 07:46:17;;;;;;;5.88;5.25;;;;;;;18.68;85.90;96086.41;5095837;28;20024;-62
2022/06/12 07:48:44;;;;;;;5.22;4.70;;;;;;;18.68;83.99;96080.28;5095695;28;20031;-62
2022/06/12 07:51:14;;;;;;;4.78;4.25;;;;;;;18.71;82.25;96079.19;5095759;28;20032;-62
2022/06/12 07:53:41;;;;;;;5.25;4.82;;;;;;;18.67;82.40;96074.13;5095687;28;20030;-62
2022/06/12 07:56:09;;;;;;;6.57;5.40;;;;;;;18.62;80.81;96075.44;5095637;28;20016;-62
2022/06/12 07:58:37;;;;;;;5.88;5.35;;;;;;;18.63;81.39;96072.69;5095557;28;20038;-62
2022/06/12 08:01:06;;;;;;;5.78;5.18;;;;;;;18.63;81.14;96063.91;5095513;28;20032;-62
2022/06/12 08:03:33;;;;;;;6.57;5.80;;;;;;;18.59;81.87;96073.91;5095654;28;20048;-62
2022/06/12 08:05:58;;;;;;;6.28;5.47;;;;;;;18.69;82.15;96076.66;5095509;28;20043;-62
2022/06/12 08:08:25;;;;;;;6.47;5.20;;;;;;;18.73;82.16;96085.22;5095506;28;20066;-62
2022/06/12 08:10:51;;;;;;;6.50;4.95;;;;;;;18.76;82.38;96084.97;5095386;28;20016;-62
2022/06/12 08:13:17;;;;;;;5.60;4.95;;;;;;;18.80;82.02;96078.47;5095230;28;20028;-62
2022/06/12 08:15:46;;;;;;;5.65;4.72;;;;;;;18.74;81.94;96087.75;5095212;28;20351;-62
2022/06/12 08:18:14;;;;;;;5.80;4.60;;;;;;;18.66;81.65;96093.63;5095271;28;20076;-62
2022/06/12 08:20:47;;;;;;;5.63;5.03;;;;;;;18.72;80.80;96086.19;5095157;28;20492;-62
2022/06/12 08:23:27;;;;;;;9.48;4.97;;;;;;;18.79;82.09;96105.94;5095243;28;20032;-63
2022/06/12 08:26:00;;;;;;;5.72;5.10;;;;;;;18.85;81.37;96102.81;5095148;28;20051;-63
2022/06/12 08:28:28;;;;;;;7.55;4.90;;;;;;;18.98;81.17;96104.47;5095140;28;20553;-62
2022/06/12 08:30:55;;;;;;;4.95;4.47;;;;;;;19.11;81.63;96107.84;5095068;28;20016;-63
2022/06/12 08:33:22;;;;;;;4.32;4.03;;;;;;;19.23;79.48;96105.22;5094927;28;20125;-62
2022/06/12 08:35:49;;;;;;;5.97;4.78;;;;;;;19.35;80.23;96093.59;5094831;28;20027;-62
2022/06/12 08:38:15;;;;;;;5.82;5.05;;;;;;;19.49;80.27;96096.94;5095039;28;20033;-62
2022/06/12 08:41:05;;;;;;;8.85;5.68;;;;;;;19.67;81.42;96099.91;5094802;28;20024;-62
2022/06/12 08:43:41;;;;;;;8.10;5.15;;;;;;;19.72;79.42;96083.59;5094818;28;20032;-62
2022/06/12 08:46:13;;;;;;;6.97;4.50;;;;;;;19.79;77.14;96090.09;5094881;28;20031;-62
2022/06/12 08:48:57;;;;;;;5.90;4.28;;;;;;;19.90;75.34;96105.13;5094671;28;20052;-62
2022/06/12 08:51:36;;;;;;;5.97;4.65;;;;;;;20.00;77.17;96098.06;5094569;28;20392;-62
2022/06/12 08:54:10;;;;;;;4.65;3.92;;;;;;;20.10;75.62;96100.81;5094501;28;20032;-61
2022/06/12 08:56:48;;;;;;;6.47;4.40;;;;;;;20.10;74.58;96102.66;5094589;28;20378;-63
2022/06/12 08:59:48;;;;;;;5.47;4.70;;;;;;;19.99;76.22;96107.03;5092924;28;20397;-62
2022/06/12 09:02:25;;;;;;;4.80;4.40;;;;;;;20.03;75.81;96103.16;5094247;28;20032;-61
2022/06/12 09:04:52;;;;;;;5.60;4.50;;;;;;;19.88;74.44;96115.00;5094309;28;20036;-62
2022/06/12 09:07:46;;;;;;;7.45;4.60;;;;;;;19.78;72.86;96106.97;5094399;28;20020;-61
2022/06/12 09:10:32;;;;;;;5.22;4.32;;;;;;;19.72;73.99;96100.38;5094357;28;20490;-62
2022/06/12 09:13:21;;;;;;;8.75;7.68;;;;;;;19.65;76.11;96107.13;5094062;28;20389;-62
2022/06/12 09:16:05;;;;;;;7.75;4.95;;;;;;;19.56;76.25;96106.94;5056131;28;20032;-62
2022/06/12 09:19:14;;;;;;;9.98;8.88;;;;;;;19.57;77.56;96107.78;5094156;28;20137;-62
2022/06/12 09:21:58;;;;;;;5.88;5.35;;;;;;;19.53;76.34;96112.47;5094194;28;20024;-62
2022/06/12 09:24:58;;;;;;;8.85;4.82;;;;;;;19.34;75.95;96113.13;5093979;28;20044;-62
2022/06/12 09:27:26;;;;;;;5.82;5.22;;;;;;;19.34;78.33;96117.56;5062253;28;20040;-62
2022/06/12 09:30:09;;;;;;;7.50;6.22;;;;;;;19.30;77.36;96125.78;5093923;28;20024;-63
2022/06/12 09:32:49;;;;;;;11.82;5.90;;;;;;;19.38;77.39;96119.88;5093941;28;20027;-63
2022/06/12 09:35:34;;;;;;;6.20;5.60;;;;;;;19.39;77.89;96126.03;5093914;28;20067;-62
2022/06/12 09:38:25;;;;;;;7.13;6.38;;;;;;;19.43;76.80;96114.19;5093830;28;20500;-62
2022/06/12 09:41:05;;;;;;;7.40;5.50;;;;;;;19.44;78.65;96116.72;5093852;28;20083;-63
2022/06/12 09:43:51;;;;;;;5.67;5.13;;;;;;;19.50;76.58;96114.56;5093727;28;20059;-63
2022/06/12 09:46:30;;;;;;;27.80;6.18;;;;;;;19.57;75.57;96111.25;5093746;28;20534;-62
2022/06/12 09:49:15;;;;;;;7.05;5.70;;;;;;;19.65;78.64;96113.28;5093675;28;20028;-62
2022/06/12 09:52:14;;;;;;;7.22;5.70;;;;;;;19.80;76.96;96118.28;5093561;28;20036;-63
2022/06/12 09:55:04;;;;;;;7.00;6.30;;;;;;;20.03;78.32;96113.78;5093670;28;20423;-62
2022/06/12 09:57:49;;;;;;;6.50;5.90;;;;;;;20.28;80.70;96130.28;5093486;28;20032;-63
2022/06/12 10:00:23;;;;;;;7.10;5.05;;;;;;;20.27;75.52;96123.31;5093715;28;20063;-63
2022/06/12 10:03:05;;;;;;;8.43;4.75;;;;;;;20.39;76.45;96129.41;5093433;28;20020;-62
2022/06/12 10:05:40;;;;;;;5.13;4.72;;;;;;;20.35;73.89;96122.69;5092910;28;20030;-62
2022/06/12 10:08:31;;;;;;;10.57;5.68;;;;;;;20.39;76.29;96129.41;5093325;28;20024;-62
2022/06/12 10:11:07;;;;;;;7.18;6.55;;;;;;;20.28;75.95;96122.34;5093354;28;20082;-63
2022/06/12 10:13:42;;;;;;;7.68;6.25;;;;;;;20.15;76.94;96133.16;5093223;28;20077;-62
2022/06/12 10:16:53;;;;;;;8.23;5.78;;;;;;;20.24;76.91;96126.22;5093057;28;20044;-62
2022/06/12 10:19:33;;;;;;;9.35;5.78;;;;;;;20.29;76.48;96133.81;5067481;28;20097;-63
2022/06/12 10:22:05;;;;;;;9.02;6.00;;;;;;;20.28;77.76;96150.69;5093401;28;20073;-62
2022/06/12 10:24:31;;;;;;;5.82;5.32;;;;;;;20.10;76.87;96137.16;5093255;28;20017;-62
2022/06/12 10:27:08;;;;;;;7.07;5.38;;;;;;;19.98;77.21;96117.75;5093104;28;20028;-63
2022/06/12 10:29:57;;;;;;;6.45;5.20;;;;;;;19.90;77.85;96116.56;5093269;28;20058;-63
2022/06/12 10:32:28;;;;;;;14.45;5.47;;;;;;;19.90;78.86;96115.75;5093250;28;20479;-62
2022/06/12 10:35:13;;;;;;;9.80;4.72;;;;;;;19.92;78.68;96104.03;5093107;28;20100;-63
2022/06/12 10:37:39;;;;;;;7.07;5.80;;;;;;;19.93;78.18;96111.00;5092996;28;20077;-61
2022/06/12 10:40:27;;;;;;;6.90;6.30;;;;;;;19.97;80.14;96113.41;5093042;28;20016;-63
2022/06/12 10:43:04;;;;;;;9.20;7.53;;;;;;;19.99;78.65;96119.44;5092806;28;20496;-62
2022/06/12 10:45:40;;;;;;;9.75;7.90;;;;;;;19.90;78.85;96119.22;5093082;28;20024;-63
2022/06/12 10:48:24;;;;;;;8.00;6.18;;;;;;;19.93;79.25;96118.97;5092974;28;20058;-61
2022/06/12 10:51:00;;;;;;;5.32;4.82;;;;;;;19.98;78.17;96112.44;5093014;28;20043;-63
2022/06/12 10:53:29;;;;;;;6.85;4.57;;;;;;;19.97;78.54;96103.63;5092998;28;20028;-62
2022/06/12 10:56:16;;;;;;;5.05;4.55;;;;;;;19.98;79.32;96100.00;5092855;28;20099;-63
2022/06/12 10:58:44;;;;;;;6.07;4.05;;;;;;;20.11;80.15;96096.38;5092980;28;20024;-62
2022/06/12 11:01:36;;;;;;;5.85;3.88;;;;;;;20.15;78.67;96082.72;5092839;28;20016;-63
2022/06/12 11:04:29;;;;;;;3.83;3.53;;;;;;;20.18;78.54;96090.41;5054988;28;20064;-63
2022/06/12 11:07:03;;;;;;;3.80;3.45;;;;;;;20.29;76.40;96091.31;5092874;28;20125;-63
2022/06/12 11:09:49;;;;;;;4.40;3.60;;;;;;;20.33;78.27;96088.28;5092877;28;20102;-62
2022/06/12 11:12:21;;;;;;;3.28;3.05;;;;;;;20.43;77.71;96084.81;5078797;28;20076;-61
2022/06/12 11:15:35;;;;;;;3.63;2.95;;;;;;;20.75;77.33;96075.03;5092673;28;20032;-62
2022/06/12 11:18:20;;;;;;;3.17;2.83;;;;;;;20.92;75.88;96081.59;5070884;28;20044;-62
2022/06/12 11:21:01;;;;;;;4.65;3.05;;;;;;;21.07;76.62;96080.22;5096332;28;20470;-62
2022/06/12 11:23:58;;;;;;;5.22;3.08;;;;;;;21.25;74.34;96082.22;5096395;28;20122;-62
2022/06/12 11:26:52;;;;;;;2.90;2.70;;;;;;;21.39;75.54;96077.50;5096318;28;20505;-61
2022/06/12 11:30:08;;;;;;;8.48;2.83;;;;;;;21.50;76.63;96073.88;5096336;28;20070;-62
2022/06/12 11:32:50;;;;;;;4.50;2.42;;;;;;;21.65;74.28;96071.66;5096126;28;20496;-62
2022/06/12 11:35:54;;;;;;;1.92;1.80;;;;;;;21.59;73.43;96079.19;5096278;28;20016;-62
2022/06/12 11:38:45;;;;;;;2.78;2.25;;;;;;;21.47;73.21;96077.66;5096200;28;20036;-63
2022/06/12 11:41:33;;;;;;;5.20;2.08;;;;;;;21.55;74.63;96069.81;5095878;28;20536;-63
2022/06/12 11:44:26;;;;;;;3.80;2.50;;;;;;;21.78;77.88;96066.94;5095931;28;20040;-61
2022/06/12 11:47:20;;;;;;;2.75;1.80;;;;;;;22.08;72.55;96067.75;5096054;28;20386;-63
2022/06/12 11:50:10;;;;;;;3.28;2.00;;;;;;;22.18;73.28;96069.53;5095946;28;20075;-61
2022/06/12 11:52:41;;;;;;;2.20;1.98;;;;;;;22.37;71.87;96074.00;5095657;28;20016;-63
2022/06/12 11:55:37;;;;;;;2.08;1.98;;;;;;;22.49;71.11;96076.50;5095665;28;20508;-62
2022/06/12 11:58:13;;;;;;;2.35;2.15;;;;;;;22.55;73.12;96067.94;5095551;28;20028;-63
2022/06/12 12:00:55;;;;;;;4.50;2.40;;;;;;;22.69;70.31;96051.50;5095742;28;20070;-62
2022/06/12 12:04:08;;;;;;;4.03;2.47;;;;;;;22.89;70.85;96051.41;5095578;28;20060;-62
2022/06/12 12:06:52;;;;;;;3.92;2.58;;;;;;;22.94;70.39;96054.44;5095356;28;20040;-64
2022/06/12 12:10:05;;;;;;;4.10;2.70;;;;;;;22.72;68.55;96055.69;5095467;28;20587;-63
2022/06/12 12:12:37;;;;;;;5.13;2.80;;;;;;;22.39;67.83;96055.22;5013340;28;20037;-62
2022/06/12 12:15:13;;;;;;;4.00;3.05;;;;;;;22.29;68.55;96057.88;5088145;28;20051;-63
2022/06/12 12:17:45;;;;;;;5.75;3.08;;;;;;;22.33;68.31;96048.63;5095066;28;20059;-62
2022/06/12 12:20:28;;;;;;;5.20;3.05;;;;;;;22.54;71.34;96044.91;5095335;28;20035;-64